createdAt,value
2022-10-05T00:01:53.126Z,101243.94
2022-10-05T00:04:22.833Z,101242.13
2022-10-05T00:07:15.362Z,101238.56
2022-10-05T00:09:43.962Z,101236.72
2022-10-05T00:12:19.001Z,101219.56
2022-10-05T00:14:49.808Z,101205.72
2022-10-05T00:17:20.237Z,101193.38
2022-10-05T00:19:52.060Z,101221.78
2022-10-05T00:22:21.655Z,101217.38
2022-10-05T00:24:55.468Z,101212.09
2022-10-05T00:27:31.338Z,101206.13
2022-10-05T00:30:01.163Z,101206.00
2022-10-05T00:32:27.634Z,101204.22
2022-10-05T00:34:54.258Z,101187.91
2022-10-05T00:37:20.880Z,101182.75
2022-10-05T00:39:47.337Z,101206.13
2022-10-05T00:42:41.730Z,101201.59
2022-10-05T00:45:33.402Z,101196.47
2022-10-05T00:48:02.859Z,101203.34
2022-10-05T00:50:59.842Z,101185.41
2022-10-05T00:53:29.382Z,101205.06
2022-10-05T00:56:20.346Z,101205.13
2022-10-05T00:59:10.386Z,101189.50
2022-10-05T01:01:43.161Z,101194.63
2022-10-05T01:04:21.243Z,101174.16
2022-10-05T01:07:02.980Z,101205.13
2022-10-05T01:09:44.809Z,101168.66
2022-10-05T01:12:19.910Z,101182.25
2022-10-05T01:14:57.329Z,101180.47
2022-10-05T01:17:37.360Z,101179.59
2022-10-05T01:20:27.158Z,101179.59
2022-10-05T01:23:15.505Z,101171.72
2022-10-05T01:26:15.963Z,101171.84
2022-10-05T01:29:30.787Z,101161.59
2022-10-05T01:32:05.006Z,101171.28
2022-10-05T01:34:34.520Z,101164.22
2022-10-05T01:37:04.873Z,101161.59
2022-10-05T01:39:37.495Z,101165.19
2022-10-05T01:42:17.124Z,101146.25
2022-10-05T01:44:49.108Z,101141.00
2022-10-05T01:47:45.307Z,101147.72
2022-10-05T01:50:23.227Z,101155.31
2022-10-05T01:53:14.430Z,101139.63
2022-10-05T01:55:59.741Z,101139.50
2022-10-05T01:58:35.791Z,101104.06
2022-10-05T02:01:35.891Z,101139.53
2022-10-05T02:04:42.631Z,101126.34
2022-10-05T02:07:14.674Z,101115.94
2022-10-05T02:09:52.363Z,101110.78
2022-10-05T02:12:23.567Z,101119.25
2022-10-05T02:14:55.357Z,101118.38
2022-10-05T02:17:38.672Z,101107.00
2022-10-05T02:20:10.231Z,101082.97
2022-10-05T02:22:45.017Z,101102.44
2022-10-05T02:25:15.801Z,101096.34
2022-10-05T02:27:52.233Z,101094.78
2022-10-05T02:30:19.569Z,101094.63
2022-10-05T02:32:56.069Z,101093.53
2022-10-05T02:35:22.886Z,101101.34
2022-10-05T02:37:57.398Z,101099.63
2022-10-05T02:40:42.793Z,101094.38
2022-10-05T02:43:21.483Z,101096.09
2022-10-05T02:46:01.124Z,101093.44
2022-10-05T02:48:43.234Z,101097.78
2022-10-05T02:51:21.001Z,101099.63
2022-10-05T02:54:03.460Z,101081.28
2022-10-05T02:56:41.046Z,101080.56
2022-10-05T02:59:16.538Z,101086.59
2022-10-05T03:01:50.447Z,101080.56
2022-10-05T03:04:20.070Z,101073.59
2022-10-05T03:06:55.950Z,101045.66
2022-10-05T03:09:28.382Z,101062.47
2022-10-05T03:12:12.504Z,101038.34
2022-10-05T03:14:57.954Z,101063.31
2022-10-05T03:17:47.573Z,101047.66
2022-10-05T03:20:41.493Z,101053.72
2022-10-05T03:23:24.125Z,101054.66
2022-10-05T03:26:17.088Z,101052.06
2022-10-05T03:29:02.003Z,101040.72
2022-10-05T03:31:37.573Z,101045.94
2022-10-05T03:34:15.373Z,101036.22
2022-10-05T03:37:10.113Z,101034.47
2022-10-05T03:39:45.005Z,101023.31
2022-10-05T03:42:24.443Z,101025.72
2022-10-05T03:45:02.244Z,101022.94
2022-10-05T03:47:34.770Z,101028.19
2022-10-05T03:50:13.840Z,101031.75
2022-10-05T03:52:55.072Z,101019.53
2022-10-05T03:55:29.502Z,101023.75
2022-10-05T03:58:00.524Z,101020.19
2022-10-05T04:00:30.089Z,101024.53
2022-10-05T04:03:15.918Z,101002.13
2022-10-05T04:05:59.265Z,101009.00
2022-10-05T04:09:00.809Z,101020.97
2022-10-05T04:11:42.696Z,100978.09
2022-10-05T04:14:30.976Z,101012.16
2022-10-05T04:17:18.147Z,101015.78
2022-10-05T04:20:01.827Z,101016.47
2022-10-05T04:22:35.191Z,100996.84
2022-10-05T04:25:14.995Z,101014.00
2022-10-05T04:27:50.981Z,101020.03
2022-10-05T04:30:22.237Z,101021.81
2022-10-05T04:32:59.980Z,101019.13
2022-10-05T04:35:41.757Z,101019.91
2022-10-05T04:38:29.461Z,101019.13
2022-10-05T04:41:28.381Z,101013.84
2022-10-05T04:44:13.050Z,101017.41
2022-10-05T04:47:19.488Z,101003.47
2022-10-05T04:50:04.685Z,100998.31
2022-10-05T04:53:10.322Z,100992.94
2022-10-05T04:56:07.507Z,100995.56
2022-10-05T04:58:51.705Z,100981.00
2022-10-05T05:01:49.103Z,100986.09
2022-10-05T05:04:24.853Z,100984.28
2022-10-05T05:07:21.050Z,100975.66
2022-10-05T05:10:18.588Z,100979.13
2022-10-05T05:12:48.031Z,100970.31
2022-10-05T05:15:33.306Z,100972.16
2022-10-05T05:18:42.975Z,100949.50
2022-10-05T05:21:43.157Z,100954.78
2022-10-05T05:24:38.882Z,100948.72
2022-10-05T05:27:20.706Z,100939.13
2022-10-05T05:29:52.983Z,100942.78
2022-10-05T05:32:53.683Z,100934.16
2022-10-05T05:35:45.138Z,100935.06
2022-10-05T05:38:23.737Z,100932.44
2022-10-05T05:40:53.167Z,100924.56
2022-10-05T05:43:26.749Z,100924.03
2022-10-05T05:46:51.227Z,100915.50
2022-10-05T05:49:21.865Z,100924.03
2022-10-05T05:52:04.586Z,100913.66
2022-10-05T05:54:38.368Z,100912.78
2022-10-05T05:57:17.559Z,100923.19
2022-10-05T06:00:08.144Z,100920.59
2022-10-05T06:02:46.201Z,100923.31
2022-10-05T06:05:30.958Z,100918.13
2022-10-05T06:08:03.222Z,100926.00
2022-10-05T06:10:38.344Z,100926.78
2022-10-05T06:13:32.665Z,100929.66
2022-10-05T06:16:09.501Z,100934.69
2022-10-05T06:18:39.852Z,100906.50
2022-10-05T06:21:21.958Z,100936.38
2022-10-05T06:24:05.060Z,100935.69
2022-10-05T06:26:39.466Z,100917.34
2022-10-05T06:29:12.477Z,100917.94
2022-10-05T06:31:59.096Z,100908.81
2022-10-05T06:34:50.392Z,100924.91
2022-10-05T06:37:50.163Z,100934.41
2022-10-05T06:40:47.546Z,100912.22
2022-10-05T06:43:32.957Z,100929.94
2022-10-05T06:46:31.385Z,100916.84
2022-10-05T06:49:16.356Z,100909.81
2022-10-05T06:52:04.436Z,100914.09
2022-10-05T06:54:51.785Z,100918.38
2022-10-05T06:57:43.396Z,100919.22
2022-10-05T07:00:27.952Z,100907.72
2022-10-05T07:02:57.403Z,100911.91
2022-10-05T07:05:52.538Z,100900.47
2022-10-05T07:08:46.838Z,100899.44
2022-10-05T07:11:16.324Z,100899.28
2022-10-05T07:13:52.281Z,100894.75
2022-10-05T07:16:33.984Z,100892.81
2022-10-05T07:19:18.955Z,100892.69
2022-10-05T07:22:00.647Z,100866.03
2022-10-05T07:24:54.082Z,100890.56
2022-10-05T07:27:31.990Z,100876.63
2022-10-05T07:30:12.382Z,100870.28
2022-10-05T07:33:05.382Z,100878.75
2022-10-05T07:35:59.871Z,100883.03
2022-10-05T07:38:48.010Z,100870.63
2022-10-05T07:41:24.445Z,100877.59
2022-10-05T07:44:17.203Z,100877.47
2022-10-05T07:46:55.428Z,100872.97
2022-10-05T07:49:59.848Z,100865.72
2022-10-05T07:52:48.756Z,100855.13
2022-10-05T07:55:21.577Z,100859.06
2022-10-05T07:58:13.293Z,100862.47
2022-10-05T08:00:53.039Z,100848.84
2022-10-05T08:03:41.196Z,100860.47
2022-10-05T08:06:15.399Z,100855.22
2022-10-05T08:08:57.501Z,100853.34
2022-10-05T08:11:33.761Z,100860.19
2022-10-05T08:14:12.250Z,100851.22
2022-10-05T08:16:38.931Z,100858.78
2022-10-05T08:19:15.210Z,100854.91
2022-10-05T08:21:47.170Z,100836.47
2022-10-05T08:24:22.901Z,100854.22
2022-10-05T08:27:02.123Z,100835.88
2022-10-05T08:29:42.256Z,100843.28
2022-10-05T08:32:22.697Z,100843.41
2022-10-05T08:34:52.184Z,100854.38
2022-10-05T08:37:27.459Z,100843.81
2022-10-05T08:40:30.085Z,100855.00
2022-10-05T08:43:05.694Z,100838.81
2022-10-05T08:46:00.602Z,100850.16
2022-10-05T08:48:30.107Z,100834.50
2022-10-05T08:51:16.533Z,100817.91
2022-10-05T08:53:55.165Z,100840.63
2022-10-05T08:56:28.965Z,100851.03
2022-10-05T08:59:14.055Z,100845.66
2022-10-05T09:02:01.072Z,100839.63
2022-10-05T09:04:42.827Z,100848.47
2022-10-05T09:07:24.532Z,100845.84
2022-10-05T09:10:12.953Z,100812.50
2022-10-05T09:12:58.560Z,100839.75
2022-10-05T09:15:49.636Z,100831.84
2022-10-05T09:18:40.856Z,100822.25
2022-10-05T09:21:31.944Z,100799.09
2022-10-05T09:24:01.419Z,100829.22
2022-10-05T09:26:58.690Z,100811.38
2022-10-05T09:29:49.999Z,100806.66
2022-10-05T09:32:27.969Z,100811.09
2022-10-05T09:35:09.613Z,100795.47
2022-10-05T09:37:48.321Z,100789.53
2022-10-05T09:40:55.157Z,100804.53
2022-10-05T09:43:49.308Z,100799.69
2022-10-05T09:46:31.368Z,100790.50
2022-10-05T09:49:10.964Z,100759.28
2022-10-05T09:51:59.888Z,100795.34
2022-10-05T09:54:28.897Z,100781.38
2022-10-05T09:57:21.711Z,100776.25
2022-10-05T10:00:28.174Z,100782.66
2022-10-05T10:03:24.991Z,100763.06
2022-10-05T10:06:24.912Z,100791.47
2022-10-05T10:09:17.871Z,100785.53
2022-10-05T10:12:13.335Z,100794.41
2022-10-05T10:14:51.775Z,100788.44
2022-10-05T10:17:44.227Z,100780.13
2022-10-05T10:20:33.848Z,100776.72
2022-10-05T10:23:35.979Z,100775.34
2022-10-05T10:26:19.364Z,100781.66
2022-10-05T10:29:24.443Z,100766.19
2022-10-05T10:32:17.591Z,100772.16
2022-10-05T10:35:19.333Z,100780.16
2022-10-05T10:38:28.636Z,100770.63
2022-10-05T10:41:24.668Z,100777.59
2022-10-05T10:44:16.321Z,100786.31
2022-10-05T10:47:16.990Z,100762.44
2022-10-05T10:50:02.141Z,100769.06
2022-10-05T10:53:06.230Z,100774.34
2022-10-05T10:55:54.628Z,100767.16
2022-10-05T10:58:27.361Z,100765.13
2022-10-05T11:01:09.137Z,100779.28
2022-10-05T11:04:04.800Z,100762.56
2022-10-05T11:06:37.463Z,100773.41
2022-10-05T11:09:39.661Z,100777.44
2022-10-05T11:12:34.708Z,100781.72
2022-10-05T11:15:13.136Z,100784.97
2022-10-05T11:18:01.390Z,100777.22
2022-10-05T11:20:46.587Z,100758.09
2022-10-05T11:23:39.026Z,100775.97
2022-10-05T11:26:37.976Z,100782.25
2022-10-05T11:29:23.034Z,100783.19
2022-10-05T11:32:18.918Z,100789.56
2022-10-05T11:35:10.779Z,100766.97
2022-10-05T11:38:30.966Z,100798.25
2022-10-05T11:41:34.714Z,100801.28
2022-10-05T11:44:10.275Z,100808.63
2022-10-05T11:46:40.583Z,100797.38
2022-10-05T11:49:45.901Z,100758.03
2022-10-05T11:52:23.877Z,100803.09
2022-10-05T11:55:15.033Z,100804.09
2022-10-05T11:57:56.036Z,100799.28
2022-10-05T12:00:40.516Z,100803.50
2022-10-05T12:03:44.974Z,100787.31
2022-10-05T12:06:21.882Z,100791.09
2022-10-05T12:09:13.448Z,100790.69
2022-10-05T12:11:57.675Z,100768.78
2022-10-05T12:14:27.558Z,100787.34
2022-10-05T12:17:34.332Z,100789.81
2022-10-05T12:20:14.820Z,100790.09
2022-10-05T12:22:48.706Z,100767.81
2022-10-05T12:25:36.535Z,100781.91
2022-10-05T12:28:09.544Z,100755.66
2022-10-05T12:31:21.472Z,100783.34
2022-10-05T12:34:01.744Z,100776.22
2022-10-05T12:36:46.221Z,100798.38
2022-10-05T12:39:30.975Z,100771.72
2022-10-05T12:42:06.925Z,100786.31
2022-10-05T12:45:11.963Z,100758.88
2022-10-05T12:48:00.089Z,100785.19
2022-10-05T12:50:34.516Z,100773.66
2022-10-05T12:53:15.125Z,100782.97
2022-10-05T12:55:53.311Z,100766.25
2022-10-05T12:58:41.365Z,100772.91
2022-10-05T13:01:32.332Z,100781.53
2022-10-05T13:04:19.066Z,100779.59
2022-10-05T13:06:52.414Z,100766.72
2022-10-05T13:09:32.103Z,100761.31
2022-10-05T13:12:07.496Z,100734.28
2022-10-05T13:14:53.795Z,100777.44
2022-10-05T13:17:40.441Z,100793.09
2022-10-05T13:20:29.270Z,100807.00
2022-10-05T13:23:04.250Z,100816.00
2022-10-05T13:25:43.061Z,100861.69
2022-10-05T13:28:28.915Z,100840.47
2022-10-05T13:31:23.076Z,100880.53
2022-10-05T13:34:21.684Z,100860.75
2022-10-05T13:37:17.407Z,100890.16
2022-10-05T13:40:10.422Z,100885.41
2022-10-05T13:43:02.058Z,100884.13
2022-10-05T13:45:55.796Z,100884.38
2022-10-05T13:48:55.295Z,100784.00
2022-10-05T13:51:25.917Z,100818.13
2022-10-05T13:54:15.328Z,100866.69
2022-10-05T13:57:13.761Z,100880.31
2022-10-05T13:59:49.906Z,100877.94
2022-10-05T14:02:23.135Z,100877.28
2022-10-05T14:04:57.677Z,100908.59
2022-10-05T14:07:48.445Z,100918.00
2022-10-05T14:10:39.627Z,100924.72
2022-10-05T14:13:49.208Z,100960.72
2022-10-05T14:16:21.828Z,100976.22
2022-10-05T14:18:51.626Z,100989.13
2022-10-05T14:21:24.765Z,100940.69
2022-10-05T14:23:52.114Z,100945.81
2022-10-05T14:26:35.397Z,100996.88
2022-10-05T14:29:14.456Z,100999.09
2022-10-05T14:32:17.219Z,100967.28
2022-10-05T14:34:55.178Z,100911.41
2022-10-05T14:37:25.261Z,101010.56
2022-10-05T14:39:57.501Z,100994.56
2022-10-05T14:42:28.390Z,101023.81
2022-10-05T14:45:14.081Z,101028.13
2022-10-05T14:48:00.608Z,101055.91
2022-10-05T14:50:31.640Z,101002.66
2022-10-05T14:53:04.340Z,101054.19
2022-10-05T14:55:47.030Z,101050.25
2022-10-05T14:58:25.624Z,101055.94
2022-10-05T15:01:14.051Z,101061.25
2022-10-05T15:03:59.606Z,101081.50
2022-10-05T15:06:42.417Z,101087.69
2022-10-05T15:09:30.947Z,101053.25
2022-10-05T15:12:00.960Z,101081.22
2022-10-05T15:14:34.072Z,101090.25
2022-10-05T15:17:20.322Z,101094.16
2022-10-05T15:20:05.180Z,101154.22
2022-10-05T15:22:46.427Z,101094.38
2022-10-05T15:25:17.152Z,101128.44
2022-10-05T15:28:11.022Z,101163.19
2022-10-05T15:30:42.714Z,101149.09
2022-10-05T15:33:31.450Z,101180.38
2022-10-05T15:36:14.263Z,101169.63
2022-10-05T15:39:06.373Z,101139.81
2022-10-05T15:41:35.630Z,101189.84
2022-10-05T15:44:19.954Z,101158.41
2022-10-05T15:46:58.209Z,101161.16
2022-10-05T15:49:37.711Z,101169.22
2022-10-05T15:52:13.078Z,101209.44
2022-10-05T15:54:54.958Z,101215.63
2022-10-05T15:57:33.975Z,101213.91
2022-10-05T16:00:14.895Z,101191.72
2022-10-05T16:02:53.520Z,101237.44
2022-10-05T16:05:48.002Z,101245.31
2022-10-05T16:08:53.053Z,101267.22
2022-10-05T16:11:37.797Z,101269.84
2022-10-05T16:14:33.137Z,101258.69
2022-10-05T16:16:59.641Z,101267.22
2022-10-05T16:19:31.897Z,101269.84
2022-10-05T16:22:43.371Z,101242.66
2022-10-05T16:25:32.051Z,101281.50
2022-10-05T16:28:29.141Z,101282.47
2022-10-05T16:31:06.753Z,101293.09
2022-10-05T16:33:54.753Z,101294.97
2022-10-05T16:36:32.063Z,101297.75
2022-10-05T16:39:07.206Z,101284.16
2022-10-05T16:41:44.201Z,101308.69
2022-10-05T16:44:22.977Z,101302.91
2022-10-05T16:46:57.750Z,101285.91
2022-10-05T16:49:42.999Z,101331.75
2022-10-05T16:52:18.891Z,101322.44
2022-10-05T16:54:51.460Z,101331.28
2022-10-05T16:57:23.735Z,101348.63
2022-10-05T17:00:17.478Z,101351.44
2022-10-05T17:03:10.242Z,101351.66
2022-10-05T17:06:07.726Z,101366.50
2022-10-05T17:08:46.609Z,101378.75
2022-10-05T17:11:31.455Z,101391.16
2022-10-05T17:14:22.629Z,101360.28
2022-10-05T17:17:20.700Z,101377.78
2022-10-05T17:20:18.165Z,101390.84
2022-10-05T17:23:41.160Z,101399.78
2022-10-05T17:26:33.700Z,101421.72
2022-10-05T17:29:16.451Z,101411.44
2022-10-05T17:32:21.564Z,101435.19
2022-10-05T17:35:02.892Z,101417.34
2022-10-05T17:37:37.925Z,101460.75
2022-10-05T17:40:28.529Z,101460.88
2022-10-05T17:43:01.151Z,101441.31
2022-10-05T17:45:33.729Z,101475.06
2022-10-05T17:48:03.706Z,101485.63
2022-10-05T17:51:06.452Z,101497.88
2022-10-05T17:54:05.460Z,101460.09
2022-10-05T17:56:47.107Z,101460.34
2022-10-05T17:59:45.405Z,101524.31
2022-10-05T18:02:40.834Z,101537.38
2022-10-05T18:05:14.533Z,101540.84
2022-10-05T18:08:07.607Z,101545.34
2022-10-05T18:10:37.847Z,101555.84
2022-10-05T18:13:35.760Z,101572.41
2022-10-05T18:16:02.475Z,101567.41
2022-10-05T18:18:34.169Z,101594.38
2022-10-05T18:21:17.780Z,101594.44
2022-10-05T18:24:01.612Z,101595.38
2022-10-05T18:26:34.024Z,101598.91
2022-10-05T18:29:39.384Z,101612.06
2022-10-05T18:32:47.263Z,101620.94
2022-10-05T18:35:25.999Z,101643.59
2022-10-05T18:38:04.774Z,101661.00
2022-10-05T18:40:49.945Z,101668.81
2022-10-05T18:43:52.900Z,101634.25
2022-10-05T18:46:37.775Z,101688.88
2022-10-05T18:49:39.666Z,101680.28
2022-10-05T18:52:09.343Z,101692.50
2022-10-05T18:54:54.943Z,101691.75
2022-10-05T18:57:50.111Z,101697.09
2022-10-05T19:00:20.791Z,101703.34
2022-10-05T19:02:52.766Z,101700.00
2022-10-05T19:05:46.462Z,101724.41
2022-10-05T19:08:29.606Z,101726.19
2022-10-05T19:11:24.389Z,101729.75
2022-10-05T19:13:56.431Z,101726.28
2022-10-05T19:16:47.320Z,101735.91
2022-10-05T19:19:38.598Z,101747.28
2022-10-05T19:22:26.333Z,101738.78
2022-10-05T19:25:20.935Z,101760.44
2022-10-05T19:28:21.631Z,101738.94
2022-10-05T19:30:59.306Z,101781.44
2022-10-05T19:33:47.246Z,101790.16
2022-10-05T19:36:37.886Z,101770.34
2022-10-05T19:39:12.071Z,101804.13
2022-10-05T19:41:50.607Z,101812.00
2022-10-05T19:44:28.893Z,101817.22
2022-10-05T19:47:14.843Z,101825.09
2022-10-05T19:49:54.276Z,101824.28
2022-10-05T19:52:31.711Z,101831.22
2022-10-05T19:55:11.058Z,101834.72
2022-10-05T19:57:52.446Z,101836.50
2022-10-05T20:00:31.359Z,101847.78
2022-10-05T20:03:19.236Z,101852.16
2022-10-05T20:05:46.060Z,101822.75
2022-10-05T20:08:18.300Z,101858.31
2022-10-05T20:10:46.489Z,101843.66
2022-10-05T20:13:22.190Z,101868.81
2022-10-05T20:16:39.822Z,101880.09
2022-10-05T20:19:46.190Z,101887.97
2022-10-05T20:22:39.598Z,101908.00
2022-10-05T20:25:30.406Z,101918.44
2022-10-05T20:27:57.479Z,101908.03
2022-10-05T20:30:27.487Z,101908.03
2022-10-05T20:33:09.189Z,101919.34
2022-10-05T20:35:35.684Z,101924.56
2022-10-05T20:38:02.402Z,101930.69
2022-10-05T20:40:29.887Z,101913.41
2022-10-05T20:42:57.681Z,101926.41
2022-10-05T20:45:24.355Z,101949.78
2022-10-05T20:47:51.017Z,101966.31
2022-10-05T20:50:17.995Z,101951.59
2022-10-05T20:52:44.604Z,101990.66
2022-10-05T20:55:12.357Z,101982.91
2022-10-05T20:57:42.086Z,102004.59
2022-10-05T21:00:10.293Z,102008.94
2022-10-05T21:02:37.219Z,102014.16
2022-10-05T21:05:04.547Z,102015.03
2022-10-05T21:07:31.288Z,102007.25
2022-10-05T21:10:01.096Z,102021.13
2022-10-05T21:12:27.927Z,102022.88
2022-10-05T21:14:54.487Z,102022.03
2022-10-05T21:17:21.045Z,102000.38
2022-10-05T21:19:47.819Z,102039.38
2022-10-05T21:22:14.638Z,102021.19
2022-10-05T21:24:41.234Z,102042.06
2022-10-05T21:27:08.197Z,102054.19
2022-10-05T21:29:36.381Z,102049.00
2022-10-05T21:32:03.715Z,102044.69
2022-10-05T21:34:30.285Z,102062.91
2022-10-05T21:36:56.780Z,102079.44
2022-10-05T21:39:24.679Z,102058.59
2022-10-05T21:41:51.253Z,102082.03
2022-10-05T21:44:18.283Z,102089.00
2022-10-05T21:46:45.026Z,102094.19
2022-10-05T21:49:13.341Z,102099.44
2022-10-05T21:51:41.609Z,102089.88
2022-10-05T21:54:17.440Z,102108.09
2022-10-05T21:56:48.231Z,102094.22
2022-10-05T21:59:19.211Z,102101.16
2022-10-05T22:01:45.980Z,102109.84
2022-10-05T22:04:12.511Z,102115.06
2022-10-05T22:06:39.179Z,102105.53
2022-10-05T22:09:05.735Z,102122.03
2022-10-05T22:11:32.788Z,102103.81
2022-10-05T22:14:02.700Z,102134.22
2022-10-05T22:16:39.011Z,102141.16
2022-10-05T22:19:10.587Z,102142.88
2022-10-05T22:21:41.408Z,102145.50
2022-10-05T22:24:09.179Z,102150.72
2022-10-05T22:26:35.962Z,102149.84
2022-10-05T22:29:03.474Z,102155.06
2022-10-05T22:31:30.155Z,102149.84
2022-10-05T22:33:56.761Z,102155.06
2022-10-05T22:36:23.312Z,102160.28
2022-10-05T22:38:49.945Z,102155.94
2022-10-05T22:41:18.278Z,102162.91
2022-10-05T22:43:48.558Z,102162.03
2022-10-05T22:46:15.815Z,102174.19
2022-10-05T22:48:43.245Z,102184.59
2022-10-05T22:51:10.237Z,102184.63
2022-10-05T22:53:36.751Z,102201.13
2022-10-05T22:56:09.018Z,102192.41
2022-10-05T22:58:36.325Z,102188.09
2022-10-05T23:01:08.467Z,102199.38
2022-10-05T23:03:35.529Z,102207.22
2022-10-05T23:06:05.062Z,102203.72
2022-10-05T23:08:33.156Z,102205.47
2022-10-05T23:11:07.339Z,102207.19
2022-10-05T23:13:33.877Z,102206.31
2022-10-05T23:16:27.832Z,102224.53
2022-10-05T23:18:55.366Z,102232.38
2022-10-05T23:21:23.832Z,102233.19
2022-10-05T23:23:53.636Z,102229.69
2022-10-05T23:26:23.224Z,102245.28
2022-10-05T23:28:50.219Z,102248.75
2022-10-05T23:31:19.546Z,102250.47
2022-10-05T23:33:46.221Z,102240.03
2022-10-05T23:36:16.031Z,102252.16
2022-10-05T23:38:43.042Z,102250.47
2022-10-05T23:41:09.735Z,102260.84
2022-10-05T23:43:36.904Z,102270.38
2022-10-05T23:46:06.322Z,102275.56
2022-10-05T23:48:33.536Z,102288.53
2022-10-05T23:51:00.526Z,102292.00
2022-10-05T23:53:27.013Z,102289.38
2022-10-05T23:55:54.245Z,102291.97
2022-10-05T23:58:21.606Z,102306.69
